sensor_id;sensor_type;location;lat;lon;timestamp;pressure;altitude;pressure_sealevel;temperature;humidity
47815;BME280;33579;50.058;18.130;2023-02-28T00:00:48;100469.47;;;-0.10;100.00
47815;BME280;33579;50.058;18.130;2023-02-28T00:01:50;100469.53;;;-0.13;100.00
47815;BME280;33579;50.058;18.130;2023-02-28T00:02:51;100475.66;;;-0.17;100.00
47815;BME280;33579;50.058;18.130;2023-02-28T00:03:53;100463.47;;;-0.12;100.00
47815;BME280;33579;50.058;18.130;2023-02-28T00:04:55;100464.34;;;-0.13;100.00
47815;BME280;33579;50.058;18.130;2023-02-28T00:05:56;100467.75;;;-0.11;100.00
47815;BME280;33579;50.058;18.130;2023-02-28T00:06:58;100461.78;;;-0.15;100.00
47815;BME280;33579;50.058;18.130;2023-02-28T00:07:59;100469.56;;;-0.15;100.00
47815;BME280;33579;50.058;18.130;2023-02-28T00:09:01;100468.72;;;-0.15;100.00
47815;BME280;33579;50.058;18.130;2023-02-28T00:10:04;100466.94;;;-0.13;100.00
47815;BME280;33579;50.058;18.130;2023-02-28T00:11:09;100466.13;;;-0.15;100.00
47815;BME280;33579;50.058;18.130;2023-02-28T00:12:11;100467.84;;;-0.14;100.00
47815;BME280;33579;50.058;18.130;2023-02-28T00:13:14;100467.84;;;-0.16;100.00
47815;BME280;33579;50.058;18.130;2023-02-28T00:14:15;100463.63;;;-0.18;100.00
47815;BME280;33579;50.058;18.130;2023-02-28T00:15:17;100464.56;;;-0.22;100.00
47815;BME280;33579;50.058;18.130;2023-02-28T00:16:21;100473.19;;;-0.22;100.00
47815;BME280;33579;50.058;18.130;2023-02-28T00:17:23;100467.19;;;-0.24;100.00
47815;BME280;33579;50.058;18.130;2023-02-28T00:18:24;100468.03;;;-0.23;100.00
47815;BME280;33579;50.058;18.130;2023-02-28T00:19:26;100465.38;;;-0.20;100.00
47815;BME280;33579;50.058;18.130;2023-02-28T00:20:27;100471.38;;;-0.18;100.00
47815;BME280;33579;50.058;18.130;2023-02-28T00:21:29;100466.13;;;-0.15;100.00
47815;BME280;33579;50.058;18.130;2023-02-28T00:22:31;100472.09;;;-0.11;100.00
47815;BME280;33579;50.058;18.130;2023-02-28T00:23:33;100473.84;;;-0.13;100.00
47815;BME280;33579;50.058;18.130;2023-02-28T00:24:35;100477.38;;;-0.18;100.00
47815;BME280;33579;50.058;18.130;2023-02-28T00:25:36;100471.38;;;-0.18;100.00
47815;BME280;33579;50.058;18.130;2023-02-28T00:26:38;100472.25;;;-0.19;100.00
47815;BME280;33579;50.058;18.130;2023-02-28T00:27:40;100471.34;;;-0.17;100.00
47815;BME280;33579;50.058;18.130;2023-02-28T00:28:41;100473.91;;;-0.15;100.00
47815;BME280;33579;50.058;18.130;2023-02-28T00:29:43;100470.44;;;-0.16;100.00
47815;BME280;33579;50.058;18.130;2023-02-28T00:30:45;100473.00;;;-0.14;100.00
47815;BME280;33579;50.058;18.130;2023-02-28T00:31:46;100471.22;;;-0.10;100.00
47815;BME280;33579;50.058;18.130;2023-02-28T00:32:49;100470.31;;;-0.09;100.00
47815;BME280;33579;50.058;18.130;2023-02-28T00:33:51;100473.00;;;-0.14;100.00
47815;BME280;33579;50.058;18.130;2023-02-28T00:34:52;100474.63;;;-0.10;100.00
47815;BME280;33579;50.058;18.130;2023-02-28T00:36:05;100479.72;;;-0.07;100.00
47815;BME280;33579;50.058;18.130;2023-02-28T00:37:10;100478.91;;;-0.07;100.00
47815;BME280;33579;50.058;18.130;2023-02-28T00:38:13;100478.00;;;-0.06;100.00
47815;BME280;33579;50.058;18.130;2023-02-28T00:39:15;100480.59;;;-0.06;100.00
47815;BME280;33579;50.058;18.130;2023-02-28T00:40:17;100481.47;;;-0.06;100.00
47815;BME280;33579;50.058;18.130;2023-02-28T00:41:18;100478.03;;;-0.08;100.00
47815;BME280;33579;50.058;18.130;2023-02-28T00:42:21;100475.41;;;-0.06;100.00
47815;BME280;33579;50.058;18.130;2023-02-28T00:43:23;100472.81;;;-0.05;100.00
47815;BME280;33579;50.058;18.130;2023-02-28T00:44:24;100472.09;;;-0.11;100.00
47815;BME280;33579;50.058;18.130;2023-02-28T00:45:27;100479.84;;;-0.11;100.00
47815;BME280;33579;50.058;18.130;2023-02-28T00:46:28;100471.25;;;-0.13;100.00
47815;BME280;33579;50.058;18.130;2023-02-28T00:47:32;100471.25;;;-0.13;100.00
47815;BME280;33579;50.058;18.130;2023-02-28T00:48:34;100478.97;;;-0.10;100.00
47815;BME280;33579;50.058;18.130;2023-02-28T00:49:37;100472.94;;;-0.12;100.00
47815;BME280;33579;50.058;18.130;2023-02-28T00:50:38;100475.53;;;-0.11;100.00
47815;BME280;33579;50.058;18.130;2023-02-28T00:51:40;100484.06;;;-0.07;100.00
47815;BME280;33579;50.058;18.130;2023-02-28T00:52:41;100476.38;;;-0.10;100.00
47815;BME280;33579;50.058;18.130;2023-02-28T00:53:43;100475.53;;;-0.11;100.00
47815;BME280;33579;50.058;18.130;2023-02-28T00:54:44;100479.78;;;-0.08;100.00
47815;BME280;33579;50.058;18.130;2023-02-28T00:55:46;100476.28;;;-0.06;100.00
47815;BME280;33579;50.058;18.130;2023-02-28T00:56:48;100475.50;;;-0.09;100.00
47815;BME280;33579;50.058;18.130;2023-02-28T00:57:49;100478.91;;;-0.07;100.00
47815;BME280;33579;50.058;18.130;2023-02-28T00:58:51;100475.41;;;-0.06;100.00
47815;BME280;33579;50.058;18.130;2023-02-28T00:59:53;100476.31;;;-0.07;100.00
47815;BME280;33579;50.058;18.130;2023-02-28T01:00:55;100476.31;;;-0.07;100.00
47815;BME280;33579;50.058;18.130;2023-02-28T01:01:57;100474.63;;;-0.10;100.00
47815;BME280;33579;50.058;18.130;2023-02-28T01:02:58;100473.78;;;-0.10;100.00
47815;BME280;33579;50.058;18.130;2023-02-28T01:04:00;100473.84;;;-0.13;100.00
47815;BME280;33579;50.058;18.130;2023-02-28T01:05:01;100474.72;;;-0.15;100.00
47815;BME280;33579;50.058;18.130;2023-02-28T01:06:04;100473.03;;;-0.16;100.00
47815;BME280;33579;50.058;18.130;2023-02-28T01:07:06;100473.91;;;-0.17;100.00
47815;BME280;33579;50.058;18.130;2023-02-28T01:08:07;100473.84;;;-0.13;100.00
47815;BME280;33579;50.058;18.130;2023-02-28T01:09:09;100476.41;;;-0.12;100.00
47815;BME280;33579;50.058;18.130;2023-02-28T01:10:11;100473.78;;;-0.10;100.00
47815;BME280;33579;50.058;18.130;2023-02-28T01:11:15;100470.31;;;-0.09;100.00
47815;BME280;33579;50.058;18.130;2023-02-28T01:12:17;100466.88;;;-0.10;100.00
47815;BME280;33579;50.058;18.130;2023-02-28T01:13:21;100472.94;;;-0.11;100.00
47815;BME280;33579;50.058;18.130;2023-02-28T01:14:22;100470.50;;;-0.17;100.00
47815;BME280;33579;50.058;18.130;2023-02-28T01:15:24;100464.38;;;-0.15;100.00
47815;BME280;33579;50.058;18.130;2023-02-28T01:16:26;100466.97;;;-0.15;100.00
47815;BME280;33579;50.058;18.130;2023-02-28T01:17:28;100459.22;;;-0.15;100.00
47815;BME280;33579;50.058;18.130;2023-02-28T01:18:29;100464.38;;;-0.15;100.00
47815;BME280;33579;50.058;18.130;2023-02-28T01:19:31;100460.91;;;-0.13;100.00
47815;BME280;33579;50.058;18.130;2023-02-28T01:20:36;100466.06;;;-0.12;100.00
47815;BME280;33579;50.058;18.130;2023-02-28T01:21:38;100468.66;;;-0.13;100.00
47815;BME280;33579;50.058;18.130;2023-02-28T01:22:39;100468.81;;;-0.20;100.00
47815;BME280;33579;50.058;18.130;2023-02-28T01:23:41;100461.94;;;-0.21;100.00
47815;BME280;33579;50.058;18.130;2023-02-28T01:24:44;100461.16;;;-0.24;100.00
47815;BME280;33579;50.058;18.130;2023-02-28T01:25:51;100465.53;;;-0.28;100.00
47815;BME280;33579;50.058;18.130;2023-02-28T01:26:53;100464.66;;;-0.27;100.00
47815;BME280;33579;50.058;18.130;2023-02-28T01:27:55;100462.94;;;-0.28;100.00
47815;BME280;33579;50.058;18.130;2023-02-28T01:28:57;100462.03;;;-0.25;100.00
47815;BME280;33579;50.058;18.130;2023-02-28T01:29:59;100456.78;;;-0.22;100.00
47815;BME280;33579;50.058;18.130;2023-02-28T01:31:01;100455.06;;;-0.22;100.00
47815;BME280;33579;50.058;18.130;2023-02-28T01:32:03;100464.59;;;-0.24;100.00
47815;BME280;33579;50.058;18.130;2023-02-28T01:33:04;100456.94;;;-0.29;100.00
47815;BME280;33579;50.058;18.130;2023-02-28T01:34:06;100457.97;;;-0.37;100.00
47815;BME280;33579;50.058;18.130;2023-02-28T01:35:08;100454.63;;;-0.43;100.00
47815;BME280;33579;50.058;18.130;2023-02-28T01:37:13;100463.31;;;-0.45;100.00
47815;BME280;33579;50.058;18.130;2023-02-28T01:38:17;100457.41;;;-0.50;100.00
47815;BME280;33579;50.058;18.130;2023-02-28T01:39:24;100457.41;;;-0.50;100.00
47815;BME280;33579;50.058;18.130;2023-02-28T01:40:26;100454.88;;;-0.53;100.00
47815;BME280;33579;50.058;18.130;2023-02-28T01:41:30;100454.91;;;-0.57;100.00
47815;BME280;33579;50.058;18.130;2023-02-28T01:42:34;100456.66;;;-0.57;100.00
47815;BME280;33579;50.058;18.130;2023-02-28T01:45:27;100460.38;;;-0.71;100.00
47815;BME280;33579;50.058;18.130;2023-02-28T01:46:32;100452.69;;;-0.74;100.00
47815;BME280;33579;50.058;18.130;2023-02-28T01:47:39;100453.59;;;-0.76;100.00
47815;BME280;33579;50.058;18.130;2023-02-28T01:48:47;100449.31;;;-0.77;100.00
47815;BME280;33579;50.058;18.130;2023-02-28T01:49:50;100451.84;;;-0.76;100.00
47815;BME280;33579;50.058;18.130;2023-02-28T01:50:53;100451.03;;;-0.76;100.00
47815;BME280;33579;50.058;18.130;2023-02-28T01:51:56;100449.28;;;-0.76;100.00
47815;BME280;33579;50.058;18.130;2023-02-28T01:53:02;100449.22;;;-0.73;100.00
47815;BME280;33579;50.058;18.130;2023-02-28T01:54:09;100455.16;;;-0.69;100.00
47815;BME280;33579;50.058;18.130;2023-02-28T01:55:12;100453.53;;;-0.72;100.00
47815;BME280;33579;50.058;18.130;2023-02-28T01:56:18;100455.16;;;-0.69;100.00
47815;BME280;33579;50.058;18.130;2023-02-28T01:57:27;100453.47;;;-0.70;100.00
47815;BME280;33579;50.058;18.130;2023-02-28T01:58:30;100455.22;;;-0.71;100.00
47815;BME280;33579;50.058;18.130;2023-02-28T01:59:34;100448.34;;;-0.72;100.00
47815;BME280;33579;50.058;18.130;2023-02-28T02:00:36;100460.38;;;-0.71;100.00
47815;BME280;33579;50.058;18.130;2023-02-28T02:01:38;100447.41;;;-0.67;100.00
47815;BME280;33579;50.058;18.130;2023-02-28T02:02:41;100461.19;;;-0.68;100.00
47815;BME280;33579;50.058;18.130;2023-02-28T02:03:44;100453.53;;;-0.72;100.00
47815;BME280;33579;50.058;18.130;2023-02-28T02:04:53;100455.25;;;-0.72;100.00
47815;BME280;33579;50.058;18.130;2023-02-28T02:05:56;100449.34;;;-0.79;100.00
47815;BME280;33579;50.058;18.130;2023-02-28T02:06:58;100451.09;;;-0.81;100.00
47815;BME280;33579;50.058;18.130;2023-02-28T02:08:06;100451.09;;;-0.81;100.00
47815;BME280;33579;50.058;18.130;2023-02-28T02:09:11;100454.50;;;-0.79;100.00
47815;BME280;33579;50.058;18.130;2023-02-28T02:10:16;100451.13;;;-0.82;100.00
47815;BME280;33579;50.058;18.130;2023-02-28T02:11:20;100440.94;;;-0.90;100.00
47815;BME280;33579;50.058;18.130;2023-02-28T02:14:21;100447.09;;;-0.96;100.00
47815;BME280;33579;50.058;18.130;2023-02-28T02:15:35;100454.00;;;-0.96;100.00
47815;BME280;33579;50.058;18.130;2023-02-28T02:17:09;100444.59;;;-1.01;100.00
47815;BME280;33579;50.058;18.130;2023-02-28T02:18:36;100441.91;;;-0.94;100.00
47815;BME280;33579;50.058;18.130;2023-02-28T02:23:53;100448.75;;;-0.93;100.00
47815;BME280;33579;50.058;18.130;2023-02-28T02:25:35;100455.69;;;-0.95;100.00
47815;BME280;33579;50.058;18.130;2023-02-28T02:36:46;100454.25;;;-1.10;100.00
47815;BME280;33579;50.058;18.130;2023-02-28T02:39:13;100456.81;;;-1.10;100.00
47815;BME280;33579;50.058;18.130;2023-02-28T02:42:47;100463.69;;;-1.09;100.00
47815;BME280;33579;50.058;18.130;2023-02-28T02:43:56;100462.84;;;-1.10;100.00
47815;BME280;33579;50.058;18.130;2023-02-28T02:45:38;100464.59;;;-1.12;100.00
47815;BME280;33579;50.058;18.130;2023-02-28T02:46:47;100462.00;;;-1.10;100.00
47815;BME280;33579;50.058;18.130;2023-02-28T02:47:50;100465.44;;;-1.10;100.00
47815;BME280;33579;50.058;18.130;2023-02-28T02:48:53;100463.75;;;-1.11;100.00
47815;BME280;33579;50.058;18.130;2023-02-28T02:50:01;100457.84;;;-1.19;100.00
47815;BME280;33579;50.058;18.130;2023-02-28T02:51:15;100459.63;;;-1.21;100.00
47815;BME280;33579;50.058;18.130;2023-02-28T02:52:22;100461.25;;;-1.17;100.00
47815;BME280;33579;50.058;18.130;2023-02-28T02:53:37;100468.97;;;-1.16;100.00
47815;BME280;33579;50.058;18.130;2023-02-28T02:54:45;100462.94;;;-1.16;100.00
47815;BME280;33579;50.058;18.130;2023-02-28T02:55:52;100463.03;;;-1.19;100.00
47815;BME280;33579;50.058;18.130;2023-02-28T02:57:03;100469.88;;;-1.18;100.00
47815;BME280;33579;50.058;18.130;2023-02-28T02:58:09;100469.00;;;-1.17;100.00
47815;BME280;33579;50.058;18.130;2023-02-28T02:59:18;100468.25;;;-1.22;100.00
47815;BME280;33579;50.058;18.130;2023-02-28T03:00:31;100460.50;;;-1.22;100.00
47815;BME280;33579;50.058;18.130;2023-02-28T03:01:35;100469.97;;;-1.23;100.00
47815;BME280;33579;50.058;18.130;2023-02-28T03:02:39;100473.38;;;-1.21;100.00
47815;BME280;33579;50.058;18.130;2023-02-28T03:03:42;100474.28;;;-1.23;100.00
47815;BME280;33579;50.058;18.130;2023-02-28T03:04:52;100473.44;;;-1.24;100.00
47815;BME280;33579;50.058;18.130;2023-02-28T03:05:57;100466.63;;;-1.28;100.00
47815;BME280;33579;50.058;18.130;2023-02-28T03:06:59;100468.34;;;-1.29;100.00
47815;BME280;33579;50.058;18.130;2023-02-28T03:08:04;100471.81;;;-1.30;100.00
47815;BME280;33579;50.058;18.130;2023-02-28T03:09:05;100470.09;;;-1.29;100.00
47815;BME280;33579;50.058;18.130;2023-02-28T03:10:36;100469.97;;;-1.24;100.00
47815;BME280;33579;50.058;18.130;2023-02-28T03:11:38;100473.50;;;-1.29;100.00
47815;BME280;33579;50.058;18.130;2023-02-28T03:12:51;100465.75;;;-1.27;100.00
47815;BME280;33579;50.058;18.130;2023-02-28T03:15:28;100469.97;;;-1.24;100.00
47815;BME280;33579;50.058;18.130;2023-02-28T03:18:22;100468.28;;;-1.25;100.00
47815;BME280;33579;50.058;18.130;2023-02-28T03:19:52;100469.13;;;-1.25;100.00
47815;BME280;33579;50.058;18.130;2023-02-28T03:22:14;100469.13;;;-1.23;100.00
47815;BME280;33579;50.058;18.130;2023-02-28T03:25:16;100465.75;;;-1.29;100.00
47815;BME280;33579;50.058;18.130;2023-02-28T03:26:23;100470.94;;;-1.30;100.00
47815;BME280;33579;50.058;18.130;2023-02-28T03:27:29;100468.47;;;-1.35;100.00
47815;BME280;33579;50.058;18.130;2023-02-28T03:31:40;100471.88;;;-1.36;100.00
47815;BME280;33579;50.058;18.130;2023-02-28T03:32:57;100471.84;;;-1.33;100.00
47815;BME280;33579;50.058;18.130;2023-02-28T03:34:04;100470.13;;;-1.32;100.00
47815;BME280;33579;50.058;18.130;2023-02-28T03:35:15;100470.91;;;-1.29;100.00
47815;BME280;33579;50.058;18.130;2023-02-28T03:36:20;100466.56;;;-1.27;100.00
47815;BME280;33579;50.058;18.130;2023-02-28T03:37:25;100469.16;;;-1.27;100.00
47815;BME280;33579;50.058;18.130;2023-02-28T03:38:39;100467.50;;;-1.29;100.00
47815;BME280;33579;50.058;18.130;2023-02-28T03:39:46;100473.50;;;-1.29;100.00
47815;BME280;33579;50.058;18.130;2023-02-28T03:40:51;100470.91;;;-1.29;100.00
47815;BME280;33579;50.058;18.130;2023-02-28T03:41:58;100469.22;;;-1.31;100.00
47815;BME280;33579;50.058;18.130;2023-02-28T03:43:06;100478.78;;;-1.35;100.00
47815;BME280;33579;50.058;18.130;2023-02-28T03:44:18;100473.56;;;-1.33;100.00
47815;BME280;33579;50.058;18.130;2023-02-28T03:45:29;100478.81;;;-1.38;100.00
47815;BME280;33579;50.058;18.130;2023-02-28T03:46:35;100471.03;;;-1.35;100.00
47815;BME280;33579;50.058;18.130;2023-02-28T03:47:46;100481.38;;;-1.35;100.00
47815;BME280;33579;50.058;18.130;2023-02-28T03:48:55;100472.69;;;-1.32;100.00
47815;BME280;33579;50.058;18.130;2023-02-28T03:50:07;100478.72;;;-1.32;100.00
47815;BME280;33579;50.058;18.130;2023-02-28T03:51:15;100477.84;;;-1.32;100.00
47815;BME280;33579;50.058;18.130;2023-02-28T03:52:19;100480.56;;;-1.38;100.00
47815;BME280;33579;50.058;18.130;2023-02-28T03:53:33;100485.72;;;-1.38;100.00
47815;BME280;33579;50.058;18.130;2023-02-28T03:54:41;100482.31;;;-1.40;100.00
47815;BME280;33579;50.058;18.130;2023-02-28T03:56:06;100486.63;;;-1.41;100.00
47815;BME280;33579;50.058;18.130;2023-02-28T03:57:36;100485.00;;;-1.47;100.00
47815;BME280;33579;50.058;18.130;2023-02-28T03:58:48;100489.25;;;-1.44;100.00
47815;BME280;33579;50.058;18.130;2023-02-28T03:59:56;100489.22;;;-1.43;100.00
47815;BME280;33579;50.058;18.130;2023-02-28T04:01:12;100496.06;;;-1.40;100.00
47815;BME280;33579;50.058;18.130;2023-02-28T04:02:14;100483.28;;;-1.46;100.00
47815;BME280;33579;50.058;18.130;2023-02-28T04:03:16;100485.03;;;-1.50;100.00
47815;BME280;33579;50.058;18.130;2023-02-28T04:04:18;100482.47;;;-1.50;100.00
47815;BME280;33579;50.058;18.130;2023-02-28T04:05:21;100481.59;;;-1.49;100.00
47815;BME280;33579;50.058;18.130;2023-02-28T04:06:23;100480.69;;;-1.46;100.00
47815;BME280;33579;50.058;18.130;2023-02-28T04:07:30;100486.69;;;-1.44;100.00
47815;BME280;33579;50.058;18.130;2023-02-28T04:08:31;100482.41;;;-1.47;100.00
47815;BME280;33579;50.058;18.130;2023-02-28T04:09:33;100479.88;;;-1.50;100.00
47815;BME280;33579;50.058;18.130;2023-02-28T04:10:34;100490.22;;;-1.51;100.00
47815;BME280;33579;50.058;18.130;2023-02-28T04:11:38;100486.72;;;-1.47;100.00
47815;BME280;33579;50.058;18.130;2023-02-28T04:12:40;100483.34;;;-1.52;100.00
47815;BME280;33579;50.058;18.130;2023-02-28T04:13:41;100482.53;;;-1.53;100.00
47815;BME280;33579;50.058;18.130;2023-02-28T04:14:43;100486.84;;;-1.55;100.00
47815;BME280;33579;50.058;18.130;2023-02-28T04:15:44;100480.81;;;-1.54;100.00
47815;BME280;33579;50.058;18.130;2023-02-28T04:16:46;100480.84;;;-1.57;100.00
47815;BME280;33579;50.058;18.130;2023-02-28T04:17:47;100479.16;;;-1.58;100.00
47815;BME280;33579;50.058;18.130;2023-02-28T04:18:49;100474.88;;;-1.61;100.00
47815;BME280;33579;50.058;18.130;2023-02-28T04:19:50;100475.75;;;-1.60;100.00
47815;BME280;33579;50.058;18.130;2023-02-28T04:20:52;100483.44;;;-1.57;100.00
47815;BME280;33579;50.058;18.130;2023-02-28T04:21:54;100474.06;;;-1.63;100.00
47815;BME280;33579;50.058;18.130;2023-02-28T04:22:55;100485.25;;;-1.64;100.00
47815;BME280;33579;50.058;18.130;2023-02-28T04:23:57;100480.97;;;-1.63;100.00
47815;BME280;33579;50.058;18.130;2023-02-28T04:24:59;100489.53;;;-1.61;100.00
47815;BME280;33579;50.058;18.130;2023-02-28T04:26:00;100484.41;;;-1.64;100.00
47815;BME280;33579;50.058;18.130;2023-02-28T04:27:02;100487.00;;;-1.66;100.00
47815;BME280;33579;50.058;18.130;2023-02-28T04:28:04;100484.44;;;-1.66;100.00
47815;BME280;33579;50.058;18.130;2023-02-28T04:29:06;100481.91;;;-1.69;100.00
47815;BME280;33579;50.058;18.130;2023-02-28T04:30:08;100482.78;;;-1.70;100.00
47815;BME280;33579;50.058;18.130;2023-02-28T04:31:10;100488.78;;;-1.70;100.00
47815;BME280;33579;50.058;18.130;2023-02-28T04:32:12;100487.94;;;-1.70;100.00
47815;BME280;33579;50.058;18.130;2023-02-28T04:33:14;100493.94;;;-1.70;100.00
47815;BME280;33579;50.058;18.130;2023-02-28T04:34:16;100499.16;;;-1.71;100.00
47815;BME280;33579;50.058;18.130;2023-02-28T04:35:17;100487.91;;;-1.67;100.00
47815;BME280;33579;50.058;18.130;2023-02-28T04:36:19;100493.94;;;-1.68;100.00
47815;BME280;33579;50.058;18.130;2023-02-28T04:37:20;100499.09;;;-1.68;100.00
47815;BME280;33579;50.058;18.130;2023-02-28T04:38:22;100498.19;;;-1.65;100.00
47815;BME280;33579;50.058;18.130;2023-02-28T04:39:24;100497.38;;;-1.69;100.00
47815;BME280;33579;50.058;18.130;2023-02-28T04:40:26;100499.03;;;-1.65;100.00
47815;BME280;33579;50.058;18.130;2023-02-28T04:41:27;100500.72;;;-1.62;100.00
47815;BME280;33579;50.058;18.130;2023-02-28T04:42:32;100499.78;;;-1.58;100.00
47815;BME280;33579;50.058;18.130;2023-02-28T04:43:34;100497.25;;;-1.60;100.00
47815;BME280;33579;50.058;18.130;2023-02-28T04:44:35;100498.16;;;-1.62;100.00
47815;BME280;33579;50.058;18.130;2023-02-28T04:45:37;100495.56;;;-1.64;100.00
47815;BME280;33579;50.058;18.130;2023-02-28T04:46:39;100497.34;;;-1.66;100.00
47815;BME280;33579;50.058;18.130;2023-02-28T04:47:40;100497.38;;;-1.69;100.00
47815;BME280;33579;50.058;18.130;2023-02-28T04:48:42;100501.72;;;-1.71;100.00
47815;BME280;33579;50.058;18.130;2023-02-28T04:49:43;100506.91;;;-1.73;100.00
47815;BME280;33579;50.058;18.130;2023-02-28T04:50:45;100502.63;;;-1.75;100.00
47815;BME280;33579;50.058;18.130;2023-02-28T04:51:46;100500.03;;;-1.74;100.00
47815;BME280;33579;50.058;18.130;2023-02-28T04:52:48;100500.91;;;-1.75;100.00
47815;BME280;33579;50.058;18.130;2023-02-28T04:53:49;100502.66;;;-1.77;100.00
47815;BME280;33579;50.058;18.130;2023-02-28T04:54:51;100498.34;;;-1.76;100.00
47815;BME280;33579;50.058;18.130;2023-02-28T04:55:52;100506.03;;;-1.73;100.00
47815;BME280;33579;50.058;18.130;2023-02-28T04:56:54;100491.44;;;-1.74;100.00
47815;BME280;33579;50.058;18.130;2023-02-28T04:57:55;100501.75;;;-1.73;100.00
47815;BME280;33579;50.058;18.130;2023-02-28T04:58:57;100506.97;;;-1.77;100.00
47815;BME280;33579;50.058;18.130;2023-02-28T04:59:58;100500.97;;;-1.78;100.00
47815;BME280;33579;50.058;18.130;2023-02-28T05:01:05;100502.63;;;-1.74;100.00
47815;BME280;33579;50.058;18.130;2023-02-28T05:02:06;100504.38;;;-1.77;100.00
47815;BME280;33579;50.058;18.130;2023-02-28T05:03:08;100500.16;;;-1.83;100.00
47815;BME280;33579;50.058;18.130;2023-02-28T05:04:10;100507.06;;;-1.84;100.00
47815;BME280;33579;50.058;18.130;2023-02-28T05:05:11;100507.09;;;-1.85;100.00
47815;BME280;33579;50.058;18.130;2023-02-28T05:06:13;100504.50;;;-1.87;100.00
47815;BME280;33579;50.058;18.130;2023-02-28T05:07:15;100501.09;;;-1.89;100.00
47815;BME280;33579;50.058;18.130;2023-02-28T05:08:17;100506.25;;;-1.87;100.00
47815;BME280;33579;50.058;18.130;2023-02-28T05:09:18;100499.28;;;-1.82;100.00
47815;BME280;33579;50.058;18.130;2023-02-28T05:10:20;100503.63;;;-1.82;100.00
47815;BME280;33579;50.058;18.130;2023-02-28T05:11:27;100501.06;;;-1.86;100.00
47815;BME280;33579;50.058;18.130;2023-02-28T05:12:29;100504.63;;;-1.93;100.00
47815;BME280;33579;50.058;18.130;2023-02-28T05:13:31;100507.25;;;-1.96;100.00
47815;BME280;33579;50.058;18.130;2023-02-28T05:14:32;100508.06;;;-1.94;100.00
47815;BME280;33579;50.058;18.130;2023-02-28T05:15:34;100508.03;;;-1.92;100.00
47815;BME280;33579;50.058;18.130;2023-02-28T05:16:36;100502.91;;;-1.94;100.00
47815;BME280;33579;50.058;18.130;2023-02-28T05:17:38;100505.44;;;-1.89;100.00
47815;BME280;33579;50.058;18.130;2023-02-28T05:18:39;100506.31;;;-1.90;100.00
47815;BME280;33579;50.058;18.130;2023-02-28T05:19:41;100509.72;;;-1.90;100.00
47815;BME280;33579;50.058;18.130;2023-02-28T05:20:42;100504.59;;;-1.91;100.00
47815;BME280;33579;50.058;18.130;2023-02-28T05:21:52;100507.19;;;-1.91;100.00
47815;BME280;33579;50.058;18.130;2023-02-28T05:22:54;100510.56;;;-1.88;100.00
47815;BME280;33579;50.058;18.130;2023-02-28T05:23:59;100507.97;;;-1.88;100.00
47815;BME280;33579;50.058;18.130;2023-02-28T05:25:01;100502.03;;;-1.94;100.00
47815;BME280;33579;50.058;18.130;2023-02-28T05:26:02;100502.97;;;-1.97;100.00
47815;BME280;33579;50.058;18.130;2023-02-28T05:27:04;100506.38;;;-1.98;100.00
47815;BME280;33579;50.058;18.130;2023-02-28T05:28:06;100508.13;;;-1.99;100.00
47815;BME280;33579;50.058;18.130;2023-02-28T05:29:09;100510.66;;;-1.95;100.00
47815;BME280;33579;50.058;18.130;2023-02-28T05:30:11;100513.22;;;-1.94;100.00
47815;BME280;33579;50.058;18.130;2023-02-28T05:31:13;100507.25;;;-1.96;100.00
47815;BME280;33579;50.058;18.130;2023-02-28T05:32:15;100511.53;;;-1.98;100.00
47815;BME280;33579;50.058;18.130;2023-02-28T05:33:16;100510.72;;;-1.99;100.00
47815;BME280;33579;50.058;18.130;2023-02-28T05:34:18;100506.44;;;-2.00;100.00
47815;BME280;33579;50.058;18.130;2023-02-28T05:35:19;100521.13;;;-2.06;100.00
47815;BME280;33579;50.058;18.130;2023-02-28T05:36:21;100511.66;;;-2.06;100.00
47815;BME280;33579;50.058;18.130;2023-02-28T05:37:23;100528.78;;;-2.00;100.00
47815;BME280;33579;50.058;18.130;2023-02-28T05:38:24;100521.03;;;-1.99;100.00
47815;BME280;33579;50.058;18.130;2023-02-28T05:39:26;100522.72;;;-1.98;100.00
47815;BME280;33579;50.058;18.130;2023-02-28T05:40:27;100521.88;;;-1.98;100.00
47815;BME280;33579;50.058;18.130;2023-02-28T05:41:28;100528.81;;;-2.03;100.00
47815;BME280;33579;50.058;18.130;2023-02-28T05:42:30;100528.78;;;-2.00;100.00
47815;BME280;33579;50.058;18.130;2023-02-28T05:43:32;100529.59;;;-1.98;100.00
47815;BME280;33579;50.058;18.130;2023-02-28T05:44:33;100533.09;;;-2.02;100.00
47815;BME280;33579;50.058;18.130;2023-02-28T05:45:35;100532.22;;;-2.01;100.00
47815;BME280;33579;50.058;18.130;2023-02-28T05:46:37;100540.84;;;-2.01;100.00
47815;BME280;33579;50.058;18.130;2023-02-28T05:47:38;100534.84;;;-2.04;100.00
47815;BME280;33579;50.058;18.130;2023-02-28T05:48:41;100545.13;;;-2.01;100.00
47815;BME280;33579;50.058;18.130;2023-02-28T05:49:43;100544.28;;;-2.03;100.00
47815;BME280;33579;50.058;18.130;2023-02-28T05:50:44;100541.72;;;-2.02;100.00
47815;BME280;33579;50.058;18.130;2023-02-28T05:51:46;100545.19;;;-2.04;100.00
47815;BME280;33579;50.058;18.130;2023-02-28T05:52:51;100542.59;;;-2.04;100.00
47815;BME280;33579;50.058;18.130;2023-02-28T05:53:52;100545.16;;;-2.03;100.00
47815;BME280;33579;50.058;18.130;2023-02-28T05:54:54;100545.13;;;-2.00;100.00
47815;BME280;33579;50.058;18.130;2023-02-28T05:55:56;100535.69;;;-2.02;100.00
47815;BME280;33579;50.058;18.130;2023-02-28T05:56:57;100542.53;;;-2.01;100.00
47815;BME280;33579;50.058;18.130;2023-02-28T05:57:59;100549.47;;;-2.03;100.00
47815;BME280;33579;50.058;18.130;2023-02-28T05:59:00;100546.88;;;-2.02;100.00
47815;BME280;33579;50.058;18.130;2023-02-28T06:00:03;100545.94;;;-1.98;100.00